Main page
METAR-TAF:

METAR-TAF

Airports :

Isfahan International Airport

Esfahān, Iran

latitude: 32-28N, longitude: 051-43E, elevation: 1590 m

Current weather observation

The report was made 42 minutes ago, at 07:30 UTC
Wind 4 kt from the South
Temperature 27°C
Humidity 21%
Pressure 1024 hPa
Visibility: 8000 m

METAR: OIFM 220730Z 18004KT 8000 NSC 27/03 Q1023 A3023

Time: 11:42 (08:12 UTC)

Forecast

The report was made 2 hours and 32 minutes ago, at 05:40 UTC
Forecast valid from 22 at 06 UTC to 23 at 12 UTC
Wind 8 kt from the East/Southeast
Visibility: 8000 m
Temporary
from 22 at 08 UTC to 22 at 15 UTC
Wind 14 kt from the North/Northeast

TAF: OIFM 220540Z 2206/2312 12004MPS 8000 NSC TEMPO 2208/2215 03007MPS

Weather observations and forecasts of more than 4000 airports (METAR and TAF reports).

The available stations are represented by yellow and red dots on the map.

Hover mouse over dot to see the name of the station.

Then click to see weather observations and forecasts.

To change the map : click on the green buttons with a black cross to zoom in, on the green button with a dash to zoom out, or on the green arrows for adjacent maps.


METAR-TAF: